Time;durP1;ratioP1;P1;durP2;ratioP2;P2;SDS_P1;SDS_P2;PMS_P1;PMS_P2;Temp;Humidity;BMP_temperature;BMP_pressure;BME280_temperature;BME280_humidity;BME280_pressure;Samples;Min_cycle;Max_cycle;Signal;HPM_P1;HPM_P2
2022/06/18 00:00:48;;;;;;;16.13;5.60;;;;;;;;;;5031548;28;20061;-75
2022/06/18 00:03:14;;;;;;;14.10;6.55;;;;;;;;;;5036060;28;20021;-76
2022/06/18 00:05:41;;;;;;;11.35;5.55;;;;;;;;;;5025746;28;20110;-75
2022/06/18 00:08:11;;;;;;;12.27;5.88;;;;;;;;;;5029734;28;20180;-76
2022/06/18 00:10:37;;;;;;;14.88;5.50;;;;;;;;;;5037270;28;20068;-77
2022/06/18 00:15:58;;;;;;;11.68;6.35;;;;;;;;;;5033579;28;20125;-76
2022/06/18 00:18:24;;;;;;;14.55;5.68;;;;;;;;;;5042793;28;20029;-76
2022/06/18 00:20:51;;;;;;;10.50;5.50;;;;;;;;;;5034657;28;20032;-74
2022/06/18 00:23:18;;;;;;;10.05;5.47;;;;;;;;;;5040278;28;20040;-76
2022/06/18 00:25:45;;;;;;;12.40;5.43;;;;;;;;;;5040872;28;20096;-76
2022/06/18 00:28:19;;;;;;;13.80;5.95;;;;;;;;;;5034995;28;20064;-76
2022/06/18 00:30:46;;;;;;;10.68;5.30;;;;;;;;;;5041601;28;20025;-79
2022/06/18 00:33:12;;;;;;;10.15;5.60;;;;;;;;;;5039481;28;20030;-77
2022/06/18 00:35:39;;;;;;;15.20;6.55;;;;;;;;;;5033007;28;20025;-76
2022/06/18 00:38:06;;;;;;;14.30;5.70;;;;;;;;;;5034564;28;20049;-75
2022/06/18 00:40:35;;;;;;;12.68;5.88;;;;;;;;;;5033744;28;20032;-76
2022/06/18 00:43:07;;;;;;;13.10;5.80;;;;;;;;;;5044019;28;20025;-77
2022/06/18 00:45:33;;;;;;;12.90;6.20;;;;;;;;;;5037524;28;20043;-78
2022/06/18 00:48:17;;;;;;;14.07;6.70;;;;;;;;;;5034991;28;20045;-74
2022/06/18 00:50:56;;;;;;;14.90;6.55;;;;;;;;;;5046821;28;20124;-76
2022/06/18 00:53:24;;;;;;;13.75;6.22;;;;;;;;;;5030706;28;20033;-77
2022/06/18 00:56:00;;;;;;;13.07;5.78;;;;;;;;;;5033465;28;20404;-78
2022/06/18 00:58:32;;;;;;;9.45;5.95;;;;;;;;;;5034222;28;20152;-77
2022/06/18 01:00:59;;;;;;;17.88;6.38;;;;;;;;;;5030330;28;20028;-77
2022/06/18 01:03:25;;;;;;;11.95;6.05;;;;;;;;;;5044837;28;20025;-78
2022/06/18 01:05:51;;;;;;;16.85;6.57;;;;;;;;;;5040723;28;20033;-78
2022/06/18 01:08:20;;;;;;;12.60;7.30;;;;;;;;;;5038990;28;20029;-78
2022/06/18 01:10:48;;;;;;;11.98;6.07;;;;;;;;;;5035150;28;20119;-77
2022/06/18 01:13:15;;;;;;;13.57;6.47;;;;;;;;;;5041677;28;20026;-78
2022/06/18 01:15:42;;;;;;;12.32;6.53;;;;;;;;;;5040695;28;20021;-78
2022/06/18 01:18:08;;;;;;;10.95;5.97;;;;;;;;;;5031930;28;20031;-78
2022/06/18 01:20:40;;;;;;;14.25;6.28;;;;;;;;;;5027782;28;20095;-78
2022/06/18 01:23:10;;;;;;;14.95;6.43;;;;;;;;;;5032414;28;20087;-78
2022/06/18 01:25:37;;;;;;;12.82;6.60;;;;;;;;;;5037189;28;20051;-76
2022/06/18 01:28:03;;;;;;;16.38;6.95;;;;;;;;;;5033106;28;20037;-77
2022/06/18 01:30:37;;;;;;;16.17;7.25;;;;;;;;;;5033918;28;20033;-78
2022/06/18 01:33:06;;;;;;;16.55;7.13;;;;;;;;;;5034578;28;20125;-78
2022/06/18 01:35:32;;;;;;;17.63;7.00;;;;;;;;;;5034904;28;20040;-78
2022/06/18 01:37:59;;;;;;;15.30;7.00;;;;;;;;;;5033338;28;20036;-78
2022/06/18 01:40:40;;;;;;;13.50;7.93;;;;;;;;;;5033541;28;20522;-77
2022/06/18 01:43:06;;;;;;;15.70;7.13;;;;;;;;;;5028202;28;20478;-79
2022/06/18 01:45:35;;;;;;;14.73;7.22;;;;;;;;;;5028748;28;20045;-78
2022/06/18 01:48:03;;;;;;;13.40;6.95;;;;;;;;;;5032041;28;20041;-78
2022/06/18 01:50:34;;;;;;;14.73;7.45;;;;;;;;;;5032528;28;20486;-78
2022/06/18 01:53:19;;;;;;;12.55;7.32;;;;;;;;;;5036618;28;20041;-78
2022/06/18 01:55:48;;;;;;;17.42;7.70;;;;;;;;;;5036655;28;20490;-78
2022/06/18 01:58:17;;;;;;;16.45;8.90;;;;;;;;;;5032242;28;20125;-77
2022/06/18 02:00:44;;;;;;;19.10;8.57;;;;;;;;;;5045053;28;20099;-78
2022/06/18 02:03:11;;;;;;;11.07;7.60;;;;;;;;;;5035507;28;20075;-79
2022/06/18 02:05:37;;;;;;;16.52;8.48;;;;;;;;;;5036734;28;20060;-78
2022/06/18 02:08:04;;;;;;;19.30;8.68;;;;;;;;;;5019150;28;20465;-77
2022/06/18 02:10:38;;;;;;;15.90;8.23;;;;;;;;;;5033346;28;20029;-78
2022/06/18 02:13:07;;;;;;;17.98;8.63;;;;;;;;;;5039459;28;20544;-77
2022/06/18 02:15:36;;;;;;;17.73;9.07;;;;;;;;;;5032192;28;20031;-78
2022/06/18 02:18:03;;;;;;;14.77;8.30;;;;;;;;;;5032307;28;20060;-78
2022/06/18 02:20:31;;;;;;;14.23;8.48;;;;;;;;;;5030857;28;20442;-78
2022/06/18 02:22:57;;;;;;;16.30;9.02;;;;;;;;;;5036279;28;20025;-77
2022/06/18 02:25:25;;;;;;;20.02;8.60;;;;;;;;;;5037818;28;20044;-77
2022/06/18 02:27:55;;;;;;;15.20;8.90;;;;;;;;;;5039826;28;20033;-78
2022/06/18 02:30:23;;;;;;;15.48;8.77;;;;;;;;;;5038064;28;20016;-77
2022/06/18 02:32:49;;;;;;;17.58;9.40;;;;;;;;;;5034408;28;20053;-76
2022/06/18 02:35:16;;;;;;;21.30;9.63;;;;;;;;;;5034049;28;20017;-75
2022/06/18 02:37:42;;;;;;;20.83;9.35;;;;;;;;;;5029806;28;20026;-76
2022/06/18 02:40:21;;;;;;;15.02;10.05;;;;;;;;;;5039729;28;20483;-76
2022/06/18 02:42:48;;;;;;;22.17;9.90;;;;;;;;;;5033236;28;20026;-77
2022/06/18 02:45:14;;;;;;;18.73;9.13;;;;;;;;;;5032826;28;20029;-78
2022/06/18 02:47:40;;;;;;;17.33;9.43;;;;;;;;;;5038404;28;20072;-77
2022/06/18 02:50:09;;;;;;;21.65;10.15;;;;;;;;;;5034297;28;20083;-76
2022/06/18 02:52:37;;;;;;;17.05;9.82;;;;;;;;;;5032708;28;20053;-75
2022/06/18 02:55:22;;;;;;;20.40;10.93;;;;;;;;;;5038166;28;20072;-78
2022/06/18 02:57:51;;;;;;;22.35;10.35;;;;;;;;;;5030573;28;20384;-75
2022/06/18 03:00:17;;;;;;;23.40;11.43;;;;;;;;;;5029784;28;20072;-75
2022/06/18 03:02:43;;;;;;;25.40;14.10;;;;;;;;;;5022580;28;20044;-75
2022/06/18 03:05:17;;;;;;;26.10;12.00;;;;;;;;;;5037208;28;20029;-76
2022/06/18 03:07:43;;;;;;;24.90;12.88;;;;;;;;;;5037515;28;20036;-76
2022/06/18 03:12:53;;;;;;;22.38;12.38;;;;;;;;;;5041552;28;20063;-77
2022/06/18 03:15:19;;;;;;;29.52;12.38;;;;;;;;;;5031432;28;20398;-77
2022/06/18 03:17:45;;;;;;;26.48;12.18;;;;;;;;;;5034892;28;20037;-76
2022/06/18 03:20:14;;;;;;;26.00;13.65;;;;;;;;;;5023989;28;20030;-78
2022/06/18 03:22:40;;;;;;;32.03;14.57;;;;;;;;;;5034971;28;20222;-77
2022/06/18 03:25:07;;;;;;;29.88;13.43;;;;;;;;;;5029415;28;20478;-77
2022/06/18 03:27:33;;;;;;;26.98;14.90;;;;;;;;;;5039466;28;20025;-78
2022/06/18 03:29:59;;;;;;;34.67;15.75;;;;;;;;;;5012877;28;20568;-76
2022/06/18 03:32:25;;;;;;;32.50;16.80;;;;;;;;;;5035545;28;20025;-78
2022/06/18 03:34:51;;;;;;;34.55;15.43;;;;;;;;;;5030916;28;20533;-78
2022/06/18 03:37:17;;;;;;;31.25;16.35;;;;;;;;;;5045521;28;20376;-78
2022/06/18 03:39:43;;;;;;;24.33;14.15;;;;;;;;;;5026197;28;20037;-77
2022/06/18 03:42:09;;;;;;;29.23;15.18;;;;;;;;;;5030716;28;20079;-76
2022/06/18 03:44:35;;;;;;;30.73;15.70;;;;;;;;;;5034067;28;20502;-77
2022/06/18 03:47:02;;;;;;;32.58;16.27;;;;;;;;;;5030854;28;20037;-78
2022/06/18 03:49:30;;;;;;;33.38;14.43;;;;;;;;;;5029460;28;20041;-79
2022/06/18 03:51:56;;;;;;;27.50;16.63;;;;;;;;;;5033722;28;20025;-78
2022/06/18 03:54:22;;;;;;;29.48;16.50;;;;;;;;;;5026947;28;20116;-78
2022/06/18 03:56:49;;;;;;;32.88;15.10;;;;;;;;;;5036388;28;20514;-77
2022/06/18 03:59:15;;;;;;;29.30;14.98;;;;;;;;;;5028495;28;20036;-78
2022/06/18 04:01:41;;;;;;;34.55;15.05;;;;;;;;;;5027463;28;20033;-78
2022/06/18 04:04:08;;;;;;;31.75;15.63;;;;;;;;;;5014587;28;20040;-79
2022/06/18 04:06:35;;;;;;;32.00;14.70;;;;;;;;;;5039069;28;20029;-79
2022/06/18 04:09:01;;;;;;;30.85;15.18;;;;;;;;;;5034454;28;20033;-79
2022/06/18 04:11:27;;;;;;;34.40;15.00;;;;;;;;;;5036553;28;20025;-79
2022/06/18 04:13:54;;;;;;;34.70;16.67;;;;;;;;;;5034579;28;20514;-80
2022/06/18 04:16:20;;;;;;;28.75;14.93;;;;;;;;;;5036190;28;20021;-79
2022/06/18 04:18:46;;;;;;;30.55;14.90;;;;;;;;;;5034985;28;20030;-78
2022/06/18 04:21:12;;;;;;;32.63;15.80;;;;;;;;;;5037093;28;20036;-77
2022/06/18 04:23:39;;;;;;;27.55;15.02;;;;;;;;;;5039053;28;20044;-78
2022/06/18 04:26:05;;;;;;;28.73;14.65;;;;;;;;;;5043716;28;20043;-78
2022/06/18 04:28:31;;;;;;;41.08;14.48;;;;;;;;;;5038192;28;20509;-78
2022/06/18 04:30:57;;;;;;;35.42;14.77;;;;;;;;;;5032438;28;20475;-78
2022/06/18 04:33:23;;;;;;;28.75;14.00;;;;;;;;;;5034365;28;20025;-78
2022/06/18 04:35:53;;;;;;;29.17;14.32;;;;;;;;;;5043444;28;20135;-78
2022/06/18 04:38:20;;;;;;;33.30;14.03;;;;;;;;;;5031879;28;20056;-76
2022/06/18 04:40:46;;;;;;;30.83;13.63;;;;;;;;;;5035590;28;20272;-78
2022/06/18 04:43:13;;;;;;;29.42;14.80;;;;;;;;;;5031210;28;20033;-78
2022/06/18 04:45:39;;;;;;;27.70;13.45;;;;;;;;;;5033929;28;20037;-77
2022/06/18 04:48:06;;;;;;;30.92;13.02;;;;;;;;;;5036217;28;20480;-77
2022/06/18 04:50:38;;;;;;;31.20;13.00;;;;;;;;;;5037365;28;20033;-77
2022/06/18 04:53:05;;;;;;;31.55;12.45;;;;;;;;;;5039208;28;20031;-78
2022/06/18 04:55:33;;;;;;;33.20;13.90;;;;;;;;;;5037943;28;20046;-77
2022/06/18 04:57:59;;;;;;;32.20;12.32;;;;;;;;;;5032375;28;20041;-78
2022/06/18 05:00:25;;;;;;;33.40;12.48;;;;;;;;;;5030064;28;20035;-79
2022/06/18 05:02:51;;;;;;;30.00;12.55;;;;;;;;;;5036418;28;20478;-79
2022/06/18 05:05:18;;;;;;;30.98;12.80;;;;;;;;;;5042339;28;20026;-77
2022/06/18 05:07:45;;;;;;;33.67;12.75;;;;;;;;;;5047039;28;20487;-76
2022/06/18 05:10:11;;;;;;;30.92;13.55;;;;;;;;;;5034919;28;20524;-77
2022/06/18 05:12:37;;;;;;;31.50;12.85;;;;;;;;;;5033884;28;20041;-77
2022/06/18 05:15:04;;;;;;;30.75;12.23;;;;;;;;;;5029233;28;20554;-78
2022/06/18 05:17:32;;;;;;;30.67;13.23;;;;;;;;;;5037025;28;20029;-78
2022/06/18 05:19:58;;;;;;;37.13;13.30;;;;;;;;;;5039605;28;20044;-77
2022/06/18 05:22:25;;;;;;;33.15;12.80;;;;;;;;;;5035303;28;20033;-77
2022/06/18 05:24:51;;;;;;;31.98;12.75;;;;;;;;;;5037522;28;20113;-78
2022/06/18 05:27:23;;;;;;;25.52;12.20;;;;;;;;;;5037240;28;20167;-78
2022/06/18 05:29:49;;;;;;;33.42;12.27;;;;;;;;;;5043638;28;20457;-77
2022/06/18 05:32:15;;;;;;;23.38;12.23;;;;;;;;;;5030353;28;20091;-77
2022/06/18 05:34:41;;;;;;;36.70;12.77;;;;;;;;;;5043381;28;20079;-77
2022/06/18 05:37:14;;;;;;;22.52;11.18;;;;;;;;;;5031374;28;20156;-75
2022/06/18 05:39:40;;;;;;;25.10;12.65;;;;;;;;;;5039651;28;20056;-76
2022/06/18 05:42:06;;;;;;;24.23;12.55;;;;;;;;;;5029941;28;20261;-76
2022/06/18 05:44:32;;;;;;;30.58;12.77;;;;;;;;;;5029599;28;20116;-76
2022/06/18 05:46:58;;;;;;;25.90;11.70;;;;;;;;;;5036248;28;20037;-76
2022/06/18 05:49:25;;;;;;;26.25;12.13;;;;;;;;;;5036512;28;20044;-76
2022/06/18 05:51:51;;;;;;;32.03;12.05;;;;;;;;;;5032125;28;20029;-75
2022/06/18 05:54:17;;;;;;;32.40;12.85;;;;;;;;;;5033630;28;20025;-74
2022/06/18 05:56:43;;;;;;;30.85;11.60;;;;;;;;;;5031574;28;20525;-75
2022/06/18 05:59:12;;;;;;;24.08;12.27;;;;;;;;;;5031421;28;20253;-77
2022/06/18 06:01:38;;;;;;;32.50;12.30;;;;;;;;;;5026435;28;20041;-74
2022/06/18 06:04:04;;;;;;;34.00;12.60;;;;;;;;;;5029022;28;20034;-76
2022/06/18 06:06:30;;;;;;;29.77;13.55;;;;;;;;;;5035296;28;20029;-76
2022/06/18 06:08:56;;;;;;;27.38;11.88;;;;;;;;;;5030015;28;20029;-77
2022/06/18 06:11:29;;;;;;;28.73;12.18;;;;;;;;;;5027462;28;20055;-76
2022/06/18 06:13:55;;;;;;;27.27;10.65;;;;;;;;;;5030573;28;20114;-77
2022/06/18 06:16:21;;;;;;;32.83;11.55;;;;;;;;;;5030193;28;20087;-76
2022/06/18 06:18:47;;;;;;;29.95;11.05;;;;;;;;;;5028179;28;20037;-76
2022/06/18 06:21:13;;;;;;;23.00;10.20;;;;;;;;;;5040434;28;20033;-77
2022/06/18 06:23:39;;;;;;;27.15;10.88;;;;;;;;;;5029706;28;20132;-77
2022/06/18 06:26:34;;;;;;;26.42;11.20;;;;;;;;;;5034667;28;20029;-76
2022/06/18 06:29:01;;;;;;;23.15;11.10;;;;;;;;;;5026815;28;20040;-75
2022/06/18 06:31:27;;;;;;;26.55;11.25;;;;;;;;;;5032649;28;20036;-75
2022/06/18 06:33:53;;;;;;;26.17;11.77;;;;;;;;;;5031784;28;20034;-76
2022/06/18 06:36:20;;;;;;;25.08;10.95;;;;;;;;;;5029292;28;20088;-75
2022/06/18 06:38:46;;;;;;;22.88;10.82;;;;;;;;;;5034906;28;20040;-76
2022/06/18 06:41:22;;;;;;;28.55;12.38;;;;;;;;;;5030612;28;20048;-76
2022/06/18 06:43:49;;;;;;;31.02;12.35;;;;;;;;;;5044211;28;20160;-76
2022/06/18 06:46:18;;;;;;;35.03;11.15;;;;;;;;;;5026859;28;20037;-76
2022/06/18 06:48:44;;;;;;;34.15;11.63;;;;;;;;;;5025143;28;20036;-77
2022/06/18 06:51:16;;;;;;;25.10;12.07;;;;;;;;;;5025207;28;20026;-77
2022/06/18 06:53:42;;;;;;;33.00;11.60;;;;;;;;;;5029544;28;20116;-77
2022/06/18 06:58:55;;;;;;;29.00;11.75;;;;;;;;;;5026786;28;20090;-77
2022/06/18 07:01:21;;;;;;;27.17;11.60;;;;;;;;;;5023567;28;20030;-76
2022/06/18 07:03:47;;;;;;;28.35;10.80;;;;;;;;;;5025594;28;20034;-76
2022/06/18 07:06:13;;;;;;;29.60;11.23;;;;;;;;;;5028008;28;20041;-74
2022/06/18 07:08:40;;;;;;;24.58;10.13;;;;;;;;;;5029582;28;20037;-79
2022/06/18 07:11:06;;;;;;;31.88;10.80;;;;;;;;;;5027519;28;20021;-77
2022/06/18 07:13:32;;;;;;;28.85;10.45;;;;;;;;;;5025722;28;20030;-77
2022/06/18 07:15:58;;;;;;;20.75;10.55;;;;;;;;;;5017924;28;20044;-77
2022/06/18 07:18:26;;;;;;;36.08;11.43;;;;;;;;;;5027759;28;20037;-77
2022/06/18 07:20:52;;;;;;;28.48;10.38;;;;;;;;;;5027046;28;20026;-77
2022/06/18 07:23:18;;;;;;;24.88;11.52;;;;;;;;;;5020752;28;20030;-77
2022/06/18 07:25:44;;;;;;;32.70;12.15;;;;;;;;;;5016800;28;20135;-78
2022/06/18 07:28:11;;;;;;;25.48;11.35;;;;;;;;;;5024348;28;20077;-78
2022/06/18 07:30:38;;;;;;;30.17;11.98;;;;;;;;;;5026476;28;20029;-78
2022/06/18 07:33:04;;;;;;;29.55;11.70;;;;;;;;;;5026775;28;20030;-77
2022/06/18 07:35:31;;;;;;;30.58;11.85;;;;;;;;;;5019155;28;20053;-78
2022/06/18 07:37:58;;;;;;;29.50;10.20;;;;;;;;;;5027805;28;20040;-77
2022/06/18 07:40:25;;;;;;;23.52;9.98;;;;;;;;;;5017231;28;20033;-77
2022/06/18 07:42:53;;;;;;;24.02;8.25;;;;;;;;;;5009409;28;20064;-77
2022/06/18 07:45:21;;;;;;;22.92;8.10;;;;;;;;;;5009357;28;20057;-76
2022/06/18 07:47:47;;;;;;;23.27;8.00;;;;;;;;;;5026613;28;20030;-76
2022/06/18 07:50:14;;;;;;;19.65;7.72;;;;;;;;;;5044445;28;20113;-76
2022/06/18 07:52:41;;;;;;;23.92;8.38;;;;;;;;;;5027802;28;20100;-76
2022/06/18 07:55:08;;;;;;;26.75;8.05;;;;;;;;;;5028864;28;20116;-76
2022/06/18 07:57:34;;;;;;;25.15;8.40;;;;;;;;;;5022649;28;20092;-76
2022/06/18 08:00:00;;;;;;;21.60;7.70;;;;;;;;;;5025449;28;20068;-76
2022/06/18 08:02:26;;;;;;;23.15;7.38;;;;;;;;;;5022666;28;20042;-76
2022/06/18 08:04:52;;;;;;;14.75;6.18;;;;;;;;;;5008920;28;20030;-76
2022/06/18 08:07:18;;;;;;;15.43;6.75;;;;;;;;;;5015469;28;20056;-75
2022/06/18 08:09:44;;;;;;;16.75;6.72;;;;;;;;;;5027139;28;20037;-75
2022/06/18 08:12:10;;;;;;;18.80;6.95;;;;;;;;;;5042512;28;20121;-76
2022/06/18 08:14:36;;;;;;;26.23;7.18;;;;;;;;;;5026056;28;20069;-77
2022/06/18 08:17:02;;;;;;;22.40;6.82;;;;;;;;;;5023567;28;20128;-76
2022/06/18 08:19:28;;;;;;;24.05;6.97;;;;;;;;;;5021332;28;20129;-76
2022/06/18 08:21:55;;;;;;;21.73;7.07;;;;;;;;;;5027722;28;20112;-76
2022/06/18 08:24:22;;;;;;;15.57;6.53;;;;;;;;;;5027848;28;20038;-76
2022/06/18 08:26:49;;;;;;;27.85;7.55;;;;;;;;;;5026959;28;20033;-76
2022/06/18 08:29:17;;;;;;;17.92;7.10;;;;;;;;;;5027241;28;20029;-76
2022/06/18 08:31:43;;;;;;;17.05;6.72;;;;;;;;;;5027153;28;20029;-76
2022/06/18 08:34:09;;;;;;;19.45;6.90;;;;;;;;;;5029695;28;20124;-76
2022/06/18 08:36:37;;;;;;;19.00;6.63;;;;;;;;;;5031312;28;20399;-76
2022/06/18 08:39:03;;;;;;;20.42;7.00;;;;;;;;;;5025117;28;20044;-77
2022/06/18 08:41:40;;;;;;;15.57;6.55;;;;;;;;;;5030804;28;20029;-76
2022/06/18 08:44:06;;;;;;;23.73;6.90;;;;;;;;;;5032562;28;20033;-76
2022/06/18 08:46:39;;;;;;;17.85;7.15;;;;;;;;;;5028052;28;20143;-77
2022/06/18 08:49:17;;;;;;;13.88;5.90;;;;;;;;;;5030528;28;20041;-76
2022/06/18 08:51:49;;;;;;;17.50;6.25;;;;;;;;;;5029827;28;20087;-77
2022/06/18 08:54:15;;;;;;;18.38;6.53;;;;;;;;;;5030421;28;20433;-77
2022/06/18 08:56:45;;;;;;;22.63;6.25;;;;;;;;;;5030824;28;20049;-78
2022/06/18 08:59:29;;;;;;;27.73;7.45;;;;;;;;;;5031034;28;20094;-77
2022/06/18 09:02:06;;;;;;;16.88;6.40;;;;;;;;;;5031404;28;20320;-77
2022/06/18 09:04:32;;;;;;;17.13;6.22;;;;;;;;;;5031319;28;20025;-76
2022/06/18 09:07:08;;;;;;;20.02;6.85;;;;;;;;;;5031076;28;20034;-77
2022/06/18 09:09:34;;;;;;;18.13;6.35;;;;;;;;;;5028169;28;20034;-76
2022/06/18 09:12:06;;;;;;;17.70;6.20;;;;;;;;;;5030436;28;20724;-76
2022/06/18 09:14:37;;;;;;;24.25;6.63;;;;;;;;;;5029943;28;20136;-77
2022/06/18 09:17:02;;;;;;;;;;;;;;;;;;5029023;28;20017;-76
2022/06/18 09:19:29;;;;;;;20.80;6.70;;;;;;;;;;5030803;28;19905;-76
2022/06/18 09:21:57;;;;;;;17.52;6.32;;;;;;;;;;5043743;28;20076;-76
2022/06/18 09:24:31;;;;;;;24.15;6.32;;;;;;;;;;5030486;28;20021;-76
2022/06/18 09:27:04;;;;;;;23.33;6.80;;;;;;;;;;5042577;28;20076;-77
2022/06/18 09:29:30;;;;;;;22.55;6.57;;;;;;;;;;5009256;28;20056;-76
2022/06/18 09:32:05;;;;;;;17.70;5.80;;;;;;;;;;5012030;28;20484;-76
2022/06/18 09:34:40;;;;;;;16.67;6.47;;;;;;;;;;5022932;28;20060;-76
2022/06/18 09:37:10;;;;;;;15.27;5.53;;;;;;;;;;5011225;28;20030;-76
2022/06/18 09:39:39;;;;;;;15.38;5.60;;;;;;;;;;5019704;28;20407;-76
2022/06/18 09:42:09;;;;;;;17.88;5.55;;;;;;;;;;5030793;28;20087;-75
2022/06/18 09:44:44;;;;;;;16.60;5.53;;;;;;;;;;5030736;28;20045;-75
2022/06/18 09:47:12;;;;;;;19.05;5.72;;;;;;;;;;5029244;28;20540;-76
2022/06/18 09:49:39;;;;;;;18.13;4.95;;;;;;;;;;5030806;28;20121;-75
2022/06/18 09:52:28;;;;;;;16.30;5.07;;;;;;;;;;5044824;28;20053;-74
2022/06/18 09:54:56;;;;;;;22.23;4.82;;;;;;;;;;5029526;28;20311;-76
2022/06/18 09:57:23;;;;;;;11.90;4.45;;;;;;;;;;5030116;28;20079;-75
2022/06/18 09:59:55;;;;;;;12.15;4.80;;;;;;;;;;5029330;28;20099;-76
2022/06/18 10:02:26;;;;;;;11.50;4.07;;;;;;;;;;5027488;28;20151;-76
2022/06/18 10:07:41;;;;;;;14.02;4.35;;;;;;;;;;5028181;28;20083;-76
2022/06/18 10:10:09;;;;;;;20.55;4.40;;;;;;;;;;5015630;28;20072;-76
2022/06/18 10:12:41;;;;;;;14.05;4.53;;;;;;;;;;5027191;28;20022;-76
2022/06/18 10:15:08;;;;;;;11.73;3.88;;;;;;;;;;5028380;28;20128;-76
2022/06/18 10:17:34;;;;;;;13.45;4.07;;;;;;;;;;5031495;28;20154;-76
2022/06/18 10:20:05;;;;;;;13.43;4.13;;;;;;;;;;5027698;28;20034;-77
2022/06/18 10:22:37;;;;;;;15.50;4.25;;;;;;;;;;5028697;28;20055;-75
2022/06/18 10:25:24;;;;;;;11.13;3.65;;;;;;;;;;5030493;28;20033;-75
2022/06/18 10:28:02;;;;;;;14.05;3.80;;;;;;;;;;5031324;28;20064;-75
2022/06/18 10:30:46;;;;;;;14.75;3.90;;;;;;;;;;5027415;28;20431;-76
2022/06/18 10:33:12;;;;;;;12.98;3.58;;;;;;;;;;5029409;28;20029;-74
2022/06/18 10:35:50;;;;;;;13.60;3.60;;;;;;;;;;5030001;28;20549;-76
2022/06/18 10:38:32;;;;;;;13.35;3.35;;;;;;;;;;5030671;28;20552;-76
2022/06/18 10:41:12;;;;;;;15.32;3.33;;;;;;;;;;5027655;28;20125;-76
2022/06/18 10:44:05;;;;;;;13.73;3.20;;;;;;;;;;5025991;28;20496;-76
2022/06/18 10:46:31;;;;;;;7.68;3.25;;;;;;;;;;5000998;28;20033;-77
2022/06/18 10:48:58;;;;;;;11.73;3.72;;;;;;;;;;5043670;28;20041;-77
2022/06/18 10:51:25;;;;;;;13.20;3.60;;;;;;;;;;5027045;28;20047;-76
2022/06/18 10:53:55;;;;;;;9.13;2.90;;;;;;;;;;5027291;28;20030;-76
2022/06/18 10:56:27;;;;;;;28.38;4.15;;;;;;;;;;5023382;28;20052;-75
2022/06/18 10:58:57;;;;;;;14.18;3.40;;;;;;;;;;5021547;28;20147;-76
2022/06/18 11:01:42;;;;;;;8.48;2.83;;;;;;;;;;5022624;28;20029;-76
2022/06/18 11:04:29;;;;;;;9.90;3.42;;;;;;;;;;5029773;28;20029;-76
2022/06/18 11:06:57;;;;;;;12.25;3.10;;;;;;;;;;5028730;28;20541;-77
2022/06/18 11:09:25;;;;;;;7.75;2.45;;;;;;;;;;5027518;28;20026;-76
2022/06/18 11:11:56;;;;;;;10.45;2.92;;;;;;;;;;5023004;28;20174;-76
2022/06/18 11:14:23;;;;;;;9.25;2.70;;;;;;;;;;5024562;28;20048;-76
2022/06/18 11:16:51;;;;;;;11.80;2.50;;;;;;;;;;5014877;28;20029;-76
2022/06/18 11:19:31;;;;;;;9.40;2.55;;;;;;;;;;5041152;28;20025;-74
2022/06/18 11:21:57;;;;;;;;;;;;;;;;;;5030261;28;20498;-75
2022/06/18 11:24:44;;;;;;;9.60;3.15;;;;;;;;;;5026631;28;19920;-75
2022/06/18 11:27:15;;;;;;;6.88;2.60;;;;;;;;;;5018773;28;20056;-75
2022/06/18 11:29:41;;;;;;;7.55;2.45;;;;;;;;;;5028861;28;20558;-75
2022/06/18 11:32:26;;;;;;;11.57;2.90;;;;;;;;;;5023481;28;20064;-75
2022/06/18 11:34:59;;;;;;;11.07;2.90;;;;;;;;;;5009653;28;20045;-76
2022/06/18 11:37:26;;;;;;;7.85;2.47;;;;;;;;;;5017845;28;20025;-76
2022/06/18 11:39:55;;;;;;;9.48;2.40;;;;;;;;;;5027825;28;20483;-75
2022/06/18 11:42:27;;;;;;;5.32;2.42;;;;;;;;;;5026187;28;20088;-74
2022/06/18 11:44:58;;;;;;;8.40;2.30;;;;;;;;;;5027642;28;20029;-74
2022/06/18 11:47:29;;;;;;;11.77;3.10;;;;;;;;;;5023822;28;20503;-74
2022/06/18 11:49:57;;;;;;;12.27;2.83;;;;;;;;;;5023725;28;20546;-77
2022/06/18 11:52:38;;;;;;;6.60;2.65;;;;;;;;;;5018850;28;20049;-76
2022/06/18 11:55:15;;;;;;;9.02;2.65;;;;;;;;;;5026400;28;20083;-66
2022/06/18 11:58:01;;;;;;;13.85;2.10;;;;;;;;;;5024038;28;20060;-66
2022/06/18 12:00:46;;;;;;;6.13;2.03;;;;;;;;;;5023277;28;20112;-66
2022/06/18 12:03:15;;;;;;;6.35;1.98;;;;;;;;;;5025822;28;20114;-66
2022/06/18 12:05:41;;;;;;;8.82;1.70;;;;;;;;;;5025859;28;20033;-68
2022/06/18 12:08:07;;;;;;;6.57;1.70;;;;;;;;;;5018823;28;20124;-67
2022/06/18 12:11:09;;;;;;;11.60;1.85;;;;;;;;;;5028582;28;20128;-67
2022/06/18 12:13:42;;;;;;;7.18;2.08;;;;;;;;;;4998710;28;20026;-66
2022/06/18 12:16:19;;;;;;;6.97;2.10;;;;;;;;;;5020067;28;20577;-67
2022/06/18 12:19:04;;;;;;;4.13;1.75;;;;;;;;;;5029087;28;20033;-68
2022/06/18 12:21:33;;;;;;;11.65;1.90;;;;;;;;;;5025197;28;20029;-68
2022/06/18 12:24:02;;;;;;;5.22;1.95;;;;;;;;;;5028070;28;20064;-68
2022/06/18 12:26:31;;;;;;;10.25;2.38;;;;;;;;;;5032872;28;20545;-67
2022/06/18 12:29:22;;;;;;;8.40;1.73;;;;;;;;;;5028979;28;20038;-68
2022/06/18 12:31:48;;;;;;;5.78;1.60;;;;;;;;;;5024867;28;20060;-67
2022/06/18 12:34:33;;;;;;;7.40;1.88;;;;;;;;;;5029133;28;20026;-67
2022/06/18 12:37:08;;;;;;;8.82;2.00;;;;;;;;;;5030947;28;20021;-68
2022/06/18 12:39:34;;;;;;;6.80;1.50;;;;;;;;;;5024834;28;20495;-68
2022/06/18 12:42:19;;;;;;;5.93;1.70;;;;;;;;;;5024773;28;20036;-68
2022/06/18 12:44:53;;;;;;;5.75;1.70;;;;;;;;;;5025184;28;20391;-67
2022/06/18 12:47:19;;;;;;;7.70;1.70;;;;;;;;;;5028866;28;20037;-67
2022/06/18 12:50:00;;;;;;;5.70;1.60;;;;;;;;;;5027693;28;20139;-66
2022/06/18 12:52:32;;;;;;;9.05;1.98;;;;;;;;;;5024648;28;20088;-70
2022/06/18 12:54:58;;;;;;;4.00;1.55;;;;;;;;;;5027348;28;20028;-68
2022/06/18 12:57:34;;;;;;;4.68;1.67;;;;;;;;;;5015711;28;20481;-68
2022/06/18 13:00:20;;;;;;;9.68;2.10;;;;;;;;;;5027768;28;20034;-67
2022/06/18 13:02:46;;;;;;;6.97;1.63;;;;;;;;;;5023547;28;20042;-68
2022/06/18 13:05:24;;;;;;;7.53;2.08;;;;;;;;;;5024561;28;20048;-67
2022/06/18 13:08:02;;;;;;;8.93;1.95;;;;;;;;;;5029080;28;20080;-67
2022/06/18 13:10:37;;;;;;;7.55;2.45;;;;;;;;;;5029133;28;20087;-69
2022/06/18 13:13:03;;;;;;;10.90;2.00;;;;;;;;;;5024131;28;20037;-68
2022/06/18 13:15:38;;;;;;;7.28;1.80;;;;;;;;;;5024362;28;20113;-67
2022/06/18 13:18:23;;;;;;;5.90;1.70;;;;;;;;;;5022537;28;20553;-67
2022/06/18 13:20:54;;;;;;;7.15;1.70;;;;;;;;;;5020841;28;20030;-67
2022/06/18 13:28:52;;;;;;;5.05;1.75;;;;;;;;;;5028056;28;20041;-67
2022/06/18 13:31:25;;;;;;;7.20;1.55;;;;;;;;;;5026171;28;20025;-68
2022/06/18 13:34:05;;;;;;;7.10;1.55;;;;;;;;;;5025859;28;20108;-67
2022/06/18 13:36:40;;;;;;;8.63;1.40;;;;;;;;;;5030186;28;20454;-67
2022/06/18 13:39:10;;;;;;;4.65;1.50;;;;;;;;;;5026410;28;20487;-67
2022/06/18 13:41:36;;;;;;;4.55;1.35;;;;;;;;;;5031340;28;20032;-67
2022/06/18 13:44:20;;;;;;;7.53;1.20;;;;;;;;;;5028423;28;20094;-67
2022/06/18 13:47:01;;;;;;;8.82;1.48;;;;;;;;;;5011701;28;20034;-67
2022/06/18 13:49:30;;;;;;;8.15;1.42;;;;;;;;;;5016449;28;20022;-67
2022/06/18 13:51:58;;;;;;;4.05;1.40;;;;;;;;;;5030780;28;20037;-68
2022/06/18 13:54:24;;;;;;;9.55;1.98;;;;;;;;;;5030512;28;20090;-68
2022/06/18 13:57:04;;;;;;;8.70;1.40;;;;;;;;;;5030503;28;20053;-68
2022/06/18 13:59:30;;;;;;;5.13;1.80;;;;;;;;;;5028631;28;20136;-67
2022/06/18 14:01:58;;;;;;;5.55;1.42;;;;;;;;;;5017901;28;20041;-68
2022/06/18 14:04:28;;;;;;;4.47;1.40;;;;;;;;;;5025817;28;20022;-68
2022/06/18 14:06:55;;;;;;;4.80;1.40;;;;;;;;;;5030602;28;20487;-68
2022/06/18 14:09:23;;;;;;;10.85;1.60;;;;;;;;;;5028328;28;20037;-67
2022/06/18 14:11:52;;;;;;;7.78;1.55;;;;;;;;;;5027688;28;20040;-67
2022/06/18 14:14:29;;;;;;;2.78;1.27;;;;;;;;;;5029161;28;20030;-67
2022/06/18 14:17:04;;;;;;;6.90;1.50;;;;;;;;;;5029774;28;20037;-67
2022/06/18 14:19:32;;;;;;;3.13;1.40;;;;;;;;;;5030100;28;20042;-68
2022/06/18 14:22:08;;;;;;;2.72;1.30;;;;;;;;;;5029538;28;20132;-68
2022/06/18 14:24:38;;;;;;;6.97;1.65;;;;;;;;;;5028497;28;20164;-68
2022/06/18 14:27:04;;;;;;;4.53;1.30;;;;;;;;;;5030439;28;20087;-71
2022/06/18 14:29:37;;;;;;;5.65;1.48;;;;;;;;;;5030393;28;20041;-67
2022/06/18 14:32:17;;;;;;;5.47;1.60;;;;;;;;;;5028540;28;20028;-67
2022/06/18 14:34:43;;;;;;;6.13;1.40;;;;;;;;;;5029286;28;20108;-67
2022/06/18 14:37:10;;;;;;;6.72;1.63;;;;;;;;;;5030020;28;20112;-67
2022/06/18 14:39:47;;;;;;;6.25;1.20;;;;;;;;;;5026901;28;20061;-68
2022/06/18 14:42:16;;;;;;;5.95;1.42;;;;;;;;;;5010825;28;20053;-67
2022/06/18 14:44:45;;;;;;;11.57;1.50;;;;;;;;;;5016901;28;20040;-68
2022/06/18 14:47:30;;;;;;;12.35;1.85;;;;;;;;;;5027960;28;20112;-68
2022/06/18 14:49:56;;;;;;;4.15;1.48;;;;;;;;;;5030890;28;20116;-67
2022/06/18 14:52:37;;;;;;;3.72;1.50;;;;;;;;;;5030494;28;20112;-67
2022/06/18 14:55:20;;;;;;;5.50;1.70;;;;;;;;;;5028757;28;20040;-68
2022/06/18 14:58:01;;;;;;;3.90;1.50;;;;;;;;;;5028973;28;20061;-68
2022/06/18 15:00:46;;;;;;;3.17;1.45;;;;;;;;;;5017394;28;20056;-68